Terminal Aerodrome Forecast
Issued by NWS

Home | Current Version | Previous Version | Graphics & Text | Print | Product List | Glossary On
Versions: 1 2 3 4 5 6 7 8 9 10 11 12 13 14 15
378
FTUS43 KMPX 260520
TAFRNH
TAF
KRNH 260520Z 2606/2706 VRB03KT 6SM -SHRA BR BKN012 OVC020
     FM260900 VRB03KT 2SM BR VCSH OVC007
     FM261200 VRB03KT 3SM BR OVC003
     FM261500 28005KT 5SM BR OVC008
     FM261900 28013KT P6SM OVC015
     FM262200 28012KT P6SM OVC020
     FM270100 28008KT P6SM OVC020=

USA.gov is the U.S. government's official web portal to all federal, state and local government web resources and services.